Time;durP1;ratioP1;P1;durP2;ratioP2;P2;SDS_P1;SDS_P2;PMS_P1;PMS_P2;Temp;Humidity;BMP_temperature;BMP_pressure;BME280_temperature;BME280_humidity;BME280_pressure;Samples;Min_cycle;Max_cycle;Signal;HPM_P1;HPM_P2
2023/04/11 00:01:28;;;;;;;5.07;2.50;;;;;;;9.32;100.00;100135.56;4997248;28;20049;-85
2023/04/11 00:03:55;;;;;;;2.80;2.35;;;;;;;9.32;100.00;100135.56;4994353;28;20621;-85
2023/04/11 00:06:26;;;;;;;2.65;2.13;;;;;;;9.31;100.00;100118.16;5008759;28;20044;-85
2023/04/11 00:08:53;;;;;;;2.45;2.35;;;;;;;9.30;100.00;100085.06;4992443;28;20131;-84
2023/04/11 00:11:19;;;;;;;3.05;2.85;;;;;;;9.27;100.00;100033.75;4987816;28;20448;-85
2023/04/11 00:13:46;;;;;;;2.63;2.00;;;;;;;9.19;100.00;99999.03;5001708;28;20056;-85
2023/04/11 00:16:13;;;;;;;3.47;2.10;;;;;;;9.13;100.00;99991.28;5005259;28;20065;-85
2023/04/11 00:18:43;;;;;;;3.65;2.17;;;;;;;9.13;100.00;100022.63;4985852;28;20143;-85
2023/04/11 00:21:11;;;;;;;3.13;2.40;;;;;;;9.17;100.00;100003.41;5001163;28;20050;-85
2023/04/11 00:23:37;;;;;;;4.70;2.03;;;;;;;9.15;100.00;99929.47;5024429;28;20117;-85
2023/04/11 00:26:05;;;;;;;2.30;2.20;;;;;;;9.09;100.00;99993.06;5043580;28;20095;-85
2023/04/11 00:28:31;;;;;;;2.78;2.35;;;;;;;9.12;100.00;100047.00;5039138;28;20057;-85
2023/04/11 00:30:58;;;;;;;2.08;1.98;;;;;;;9.08;100.00;100025.28;5021571;28;20079;-85
2023/04/11 00:33:25;;;;;;;2.25;2.00;;;;;;;9.02;100.00;100009.72;5010064;28;20073;-85
2023/04/11 00:35:51;;;;;;;3.75;3.17;;;;;;;8.94;100.00;100024.59;5023640;28;20049;-85
2023/04/11 00:38:19;;;;;;;2.05;1.95;;;;;;;8.91;100.00;100029.88;5024005;28;20528;-84
2023/04/11 00:40:45;;;;;;;2.55;1.85;;;;;;;8.94;100.00;100041.13;5007481;28;20049;-85
2023/04/11 00:43:12;;;;;;;2.47;1.48;;;;;;;8.93;100.00;100051.59;4988379;28;20045;-85
2023/04/11 00:45:39;;;;;;;2.65;1.60;;;;;;;8.90;100.00;100059.44;5006797;28;20523;-85
2023/04/11 00:48:06;;;;;;;2.42;1.38;;;;;;;8.89;100.00;100082.09;5023069;28;20060;-85
2023/04/11 00:50:33;;;;;;;1.85;0.98;;;;;;;8.93;100.00;100093.38;5039800;28;20072;-84
2023/04/11 00:52:59;;;;;;;1.30;1.20;;;;;;;8.98;100.00;100091.53;5007252;28;20045;-85
2023/04/11 00:55:26;;;;;;;1.52;1.23;;;;;;;9.05;100.00;100101.03;5024225;28;20052;-85
2023/04/11 00:57:54;;;;;;;1.10;0.85;;;;;;;9.08;100.00;100087.09;5022587;28;22260;-85
2023/04/11 01:00:21;;;;;;;1.67;1.58;;;;;;;9.12;100.00;100083.56;5023876;28;20183;-85
2023/04/11 01:02:48;;;;;;;2.22;1.15;;;;;;;9.12;100.00;100099.22;5021640;28;20049;-85
2023/04/11 01:05:16;;;;;;;0.70;0.70;;;;;;;9.17;100.00;100092.19;5005389;28;20111;-85
2023/04/11 01:07:45;;;;;;;1.48;1.08;;;;;;;9.19;100.00;100106.13;5023333;28;20045;-85
2023/04/11 01:10:14;;;;;;;1.08;0.93;;;;;;;9.18;100.00;100095.69;5025182;28;20531;-84
2023/04/11 01:12:41;;;;;;;1.38;0.90;;;;;;;9.19;100.00;100097.41;5025222;28;20041;-85
2023/04/11 01:15:08;;;;;;;2.47;1.13;;;;;;;9.19;100.00;100113.94;5024507;28;20045;-85
2023/04/11 01:17:35;;;;;;;1.27;1.00;;;;;;;9.22;100.00;100102.59;5052245;28;20076;-86
2023/04/11 01:20:02;;;;;;;0.98;0.95;;;;;;;9.21;100.00;100103.47;5005516;28;20527;-84
2023/04/11 01:22:30;;;;;;;4.50;1.27;;;;;;;9.21;100.00;100100.88;5024791;28;20049;-86
2023/04/11 01:24:58;;;;;;;2.83;1.35;;;;;;;9.18;100.00;100093.09;5021749;28;20049;-84
2023/04/11 01:27:25;;;;;;;1.75;1.10;;;;;;;9.10;100.00;100082.72;5026120;28;20043;-84
2023/04/11 01:30:19;;;;;;;0.90;0.90;;;;;;;9.02;100.00;100085.44;5029907;28;20053;-84
2023/04/11 01:33:00;;;;;;;1.00;0.70;;;;;;;8.94;100.00;100077.69;5026393;28;20399;-85
2023/04/11 01:35:33;;;;;;;0.73;0.50;;;;;;;8.95;100.00;100075.94;5012074;28;20538;-84
2023/04/11 01:38:17;;;;;;;0.82;0.70;;;;;;;8.88;100.00;100064.69;5015615;28;20050;-85
2023/04/11 01:40:55;;;;;;;2.90;0.50;;;;;;;8.85;100.00;100069.09;5045823;28;20073;-85
2023/04/11 01:43:27;;;;;;;0.70;0.70;;;;;;;8.81;100.00;100063.03;5029652;28;20096;-85
2023/04/11 01:45:58;;;;;;;0.50;0.50;;;;;;;8.78;100.00;100056.09;5029432;28;20103;-85
2023/04/11 01:48:25;;;;;;;1.02;0.50;;;;;;;8.75;100.00;100066.56;5024072;28;20049;-85
2023/04/11 01:50:51;;;;;;;0.50;0.50;;;;;;;8.74;100.00;100057.00;5012045;28;20044;-85
2023/04/11 01:53:18;;;;;;;1.42;0.40;;;;;;;8.72;100.00;100066.63;5008358;28;20052;-85
2023/04/11 01:55:44;;;;;;;1.10;0.45;;;;;;;8.69;100.00;100061.41;5040109;28;20072;-85
2023/04/11 01:58:11;;;;;;;5.00;0.98;;;;;;;8.69;100.00;100081.44;5007930;28;20451;-84
2023/04/11 02:00:40;;;;;;;0.98;0.65;;;;;;;8.69;100.00;100074.47;5024920;28;20617;-86
2023/04/11 02:03:07;;;;;;;2.42;0.50;;;;;;;8.67;100.00;100059.69;5008884;28;20104;-85
2023/04/11 02:05:33;;;;;;;2.58;0.73;;;;;;;8.63;100.00;100055.41;5010772;28;20052;-85
2023/04/11 02:08:00;;;;;;;0.40;0.38;;;;;;;8.58;100.00;100038.06;5011597;28;20045;-85
2023/04/11 02:10:26;;;;;;;0.47;0.38;;;;;;;8.57;100.00;100027.66;5007778;28;20084;-84
2023/04/11 02:12:53;;;;;;;0.77;0.40;;;;;;;8.50;100.00;100024.25;5023909;28;20081;-85
2023/04/11 02:15:20;;;;;;;1.90;0.47;;;;;;;8.46;100.00;100004.28;5024629;28;20045;-85
2023/04/11 02:17:47;;;;;;;0.50;0.40;;;;;;;8.44;100.00;100001.63;5006824;28;20053;-85
2023/04/11 02:20:14;;;;;;;3.65;0.47;;;;;;;8.46;100.00;100008.63;5024501;28;20037;-84
2023/04/11 02:22:41;;;;;;;2.33;0.60;;;;;;;8.50;100.00;100020.75;5008503;28;20498;-85
2023/04/11 02:25:08;;;;;;;1.63;0.60;;;;;;;8.48;100.00;100031.19;5025404;28;20152;-85
2023/04/11 02:27:35;;;;;;;0.73;0.60;;;;;;;8.38;100.00;100022.59;5014541;28;20049;-85
2023/04/11 02:30:04;;;;;;;0.75;0.40;;;;;;;8.35;100.00;100006.09;5014970;28;20568;-85
2023/04/11 02:32:36;;;;;;;0.50;0.30;;;;;;;8.28;100.00;99982.69;5054523;28;20053;-85
2023/04/11 02:35:06;;;;;;;0.73;0.63;;;;;;;8.28;100.00;99980.09;4990371;28;20056;-85
2023/04/11 02:37:33;;;;;;;0.98;0.52;;;;;;;8.30;100.00;99998.31;5041140;28;20068;-85
2023/04/11 02:40:02;;;;;;;0.98;0.30;;;;;;;8.36;100.00;100005.22;5005100;28;20052;-85
2023/04/11 02:42:31;;;;;;;1.50;0.30;;;;;;;8.39;100.00;99995.59;5021288;28;20508;-84
2023/04/11 02:44:57;;;;;;;0.30;0.30;;;;;;;8.39;100.00;99992.16;5009327;28;20589;-85
2023/04/11 02:47:27;;;;;;;0.50;0.35;;;;;;;8.39;100.00;99987.78;5012985;28;20138;-84
2023/04/11 02:49:53;;;;;;;1.70;0.40;;;;;;;8.39;100.00;99990.38;5027865;28;20945;-85
2023/04/11 02:52:20;;;;;;;2.58;0.40;;;;;;;8.43;100.00;99999.94;5028624;28;20056;-86
2023/04/11 02:54:47;;;;;;;1.70;0.52;;;;;;;8.41;100.00;99980.81;5015084;28;20076;-86
2023/04/11 02:57:13;;;;;;;2.38;0.43;;;;;;;8.40;100.00;99984.31;5010999;28;20300;-86
2023/04/11 02:59:40;;;;;;;2.00;0.60;;;;;;;8.36;100.00;99974.78;5027131;28;20049;-86
2023/04/11 03:02:06;;;;;;;0.80;0.30;;;;;;;8.42;100.00;99979.94;5010294;28;20041;-86
2023/04/11 03:04:35;;;;;;;1.48;0.68;;;;;;;8.38;100.00;99982.59;5044018;28;20100;-86
2023/04/11 03:07:02;;;;;;;1.05;0.30;;;;;;;8.37;100.00;99993.91;5010964;28;20041;-86
2023/04/11 03:09:28;;;;;;;1.85;0.73;;;;;;;8.36;100.00;99980.00;5042091;28;20046;-85
2023/04/11 03:11:55;;;;;;;0.82;0.60;;;;;;;8.28;100.00;99987.91;5009170;28;20053;-86
2023/04/11 03:14:22;;;;;;;1.85;0.63;;;;;;;8.29;100.00;99996.59;5025142;28;20544;-86
2023/04/11 03:16:48;;;;;;;2.60;0.90;;;;;;;8.33;100.00;99995.69;5029858;28;20045;-85
2023/04/11 03:19:15;;;;;;;2.78;1.02;;;;;;;8.39;100.00;100003.44;4994960;28;20057;-86
2023/04/11 03:21:41;;;;;;;3.20;0.63;;;;;;;8.44;100.00;100006.00;5012298;28;20112;-85
2023/04/11 03:24:08;;;;;;;0.93;0.77;;;;;;;8.55;100.00;100021.56;5005952;28;20437;-85
2023/04/11 03:26:35;;;;;;;2.45;0.57;;;;;;;8.55;96.16;100050.25;5012155;28;20521;-85
2023/04/11 03:29:01;;;;;;;4.10;0.52;;;;;;;8.24;91.44;100060.97;5027575;28;20123;-86
2023/04/11 03:31:29;;;;;;;1.05;0.50;;;;;;;7.91;91.46;100068.19;5006247;28;20113;-85
2023/04/11 03:33:58;;;;;;;4.85;0.45;;;;;;;7.75;92.76;100057.84;5027542;28;20045;-86
2023/04/11 03:36:26;;;;;;;2.65;0.65;;;;;;;7.63;92.90;100073.59;5013220;28;20057;-85
2023/04/11 03:38:55;;;;;;;2.40;0.70;;;;;;;7.47;93.17;100067.63;5024215;28;20057;-85
2023/04/11 03:41:22;;;;;;;2.65;0.70;;;;;;;7.35;94.53;100067.66;5042510;28;20100;-85
2023/04/11 03:43:48;;;;;;;4.00;1.17;;;;;;;7.29;94.77;100066.81;5006221;28;20078;-85
2023/04/11 03:46:15;;;;;;;5.70;1.05;;;;;;;7.32;94.86;100067.69;5012552;28;20057;-86
2023/04/11 03:48:41;;;;;;;5.68;0.95;;;;;;;7.28;94.71;100067.69;5029210;28;20050;-85
2023/04/11 03:51:08;;;;;;;1.90;0.75;;;;;;;7.19;95.34;100057.31;5039644;28;20046;-86
2023/04/11 03:53:34;;;;;;;3.50;0.40;;;;;;;7.18;95.71;100059.94;5012563;28;20064;-85
2023/04/11 03:56:03;;;;;;;5.57;1.00;;;;;;;7.14;96.24;100058.22;5011468;28;20049;-84
2023/04/11 03:58:30;;;;;;;3.60;0.90;;;;;;;7.13;96.78;100065.16;5028098;28;20056;-85
2023/04/11 04:00:56;;;;;;;4.85;0.85;;;;;;;7.16;98.02;100046.03;5009934;28;20065;-85
2023/04/11 04:03:23;;;;;;;3.33;0.80;;;;;;;7.07;100.00;100052.19;5010311;28;20093;-85
2023/04/11 04:05:49;;;;;;;6.47;1.48;;;;;;;7.02;100.00;100043.53;4994984;28;20068;-86
2023/04/11 04:08:17;;;;;;;4.35;1.13;;;;;;;6.94;100.00;100043.56;4994364;28;20041;-87
2023/04/11 04:10:46;;;;;;;4.03;1.05;;;;;;;6.87;100.00;100054.84;5040175;28;20037;-86
2023/04/11 04:13:13;;;;;;;8.77;2.28;;;;;;;6.88;100.00;100052.25;5044574;28;20128;-85
2023/04/11 04:15:39;;;;;;;5.38;1.73;;;;;;;6.98;100.00;100052.22;5027337;28;20436;-85
2023/04/11 04:18:06;;;;;;;7.00;1.80;;;;;;;6.96;100.00;100052.22;5011928;28;20141;-85
2023/04/11 04:20:33;;;;;;;4.97;1.42;;;;;;;7.03;100.00;100040.91;5008817;28;20136;-85
2023/04/11 04:23:00;;;;;;;6.00;1.85;;;;;;;7.06;100.00;100040.88;5009119;28;20054;-85
2023/04/11 04:25:26;;;;;;;4.10;2.05;;;;;;;7.08;100.00;100052.16;5043676;28;20420;-86
2023/04/11 04:27:56;;;;;;;8.27;1.90;;;;;;;7.08;100.00;100053.91;4993690;28;20056;-86
2023/04/11 04:30:27;;;;;;;3.63;1.10;;;;;;;7.09;100.00;100053.03;4993566;28;20044;-85
2023/04/11 04:32:57;;;;;;;8.75;1.48;;;;;;;7.11;100.00;100048.69;5026467;28;20057;-85
2023/04/11 04:35:25;;;;;;;4.18;1.30;;;;;;;7.11;100.00;100056.50;5009632;28;20558;-85
2023/04/11 04:37:52;;;;;;;3.65;1.50;;;;;;;7.09;100.00;100050.41;5007164;28;20627;-85
2023/04/11 04:40:20;;;;;;;6.70;1.52;;;;;;;7.07;100.00;100050.44;4971970;28;20054;-85
2023/04/11 04:42:48;;;;;;;4.93;0.95;;;;;;;7.08;100.00;100052.16;4963877;28;20053;-86
2023/04/11 04:45:16;;;;;;;7.90;1.77;;;;;;;7.09;100.00;100051.31;5000673;28;20033;-85
2023/04/11 04:47:42;;;;;;;3.83;1.23;;;;;;;7.11;100.00;100040.88;4987381;28;20042;-86
2023/04/11 04:50:11;;;;;;;3.70;1.58;;;;;;;7.15;100.00;100059.97;4982246;28;20042;-85
2023/04/11 04:52:40;;;;;;;2.22;1.52;;;;;;;7.21;100.00;100049.50;4984198;28;20121;-85
2023/04/11 04:55:07;;;;;;;5.65;2.40;;;;;;;7.24;100.00;100044.28;4986471;28;20045;-85
2023/04/11 04:57:34;;;;;;;4.43;1.55;;;;;;;7.22;100.00;100033.91;4964577;28;20051;-85
2023/04/11 05:00:01;;;;;;;3.25;1.13;;;;;;;7.22;100.00;100039.09;4985810;28;20046;-87
2023/04/11 05:02:27;;;;;;;7.68;1.80;;;;;;;7.22;100.00;100035.63;5008734;28;20077;-85
2023/04/11 05:04:54;;;;;;;10.43;2.47;;;;;;;7.23;100.00;100043.41;4978011;28;20613;-84
2023/04/11 05:07:21;;;;;;;5.43;1.75;;;;;;;7.29;100.00;100051.19;4971490;28;20197;-86
2023/04/11 05:09:48;;;;;;;2.80;2.17;;;;;;;7.34;100.00;100052.91;4972360;28;20052;-85
2023/04/11 05:12:15;;;;;;;6.78;1.85;;;;;;;7.34;100.00;100060.72;4981446;28;20084;-84
2023/04/11 05:14:42;;;;;;;5.72;2.28;;;;;;;7.33;100.00;100070.28;4989420;28;20225;-84
2023/04/11 05:17:09;;;;;;;6.22;2.08;;;;;;;7.32;100.00;100072.91;4969018;28;20056;-84
2023/04/11 05:19:35;;;;;;;5.95;2.67;;;;;;;7.38;100.00;100073.72;4993096;28;20413;-86
2023/04/11 05:22:03;;;;;;;7.93;2.30;;;;;;;7.47;100.00;100077.16;4994674;28;20408;-86
2023/04/11 05:24:32;;;;;;;10.50;2.72;;;;;;;7.51;100.00;100077.13;5000124;28;20057;-85
2023/04/11 05:27:00;;;;;;;7.22;1.95;;;;;;;7.49;100.00;100071.06;4989982;28;20065;-86
2023/04/11 05:29:28;;;;;;;15.10;2.53;;;;;;;7.49;100.00;100070.19;4991801;28;20053;-86
2023/04/11 05:31:55;;;;;;;12.25;3.30;;;;;;;7.51;100.00;100073.66;4974327;28;20140;-86
2023/04/11 05:34:23;;;;;;;7.00;2.00;;;;;;;7.59;100.00;100077.09;4986842;28;20077;-84
2023/04/11 05:36:50;;;;;;;6.13;2.25;;;;;;;7.72;100.00;100083.09;5007022;28;20684;-86
2023/04/11 05:39:17;;;;;;;7.25;2.80;;;;;;;7.80;100.00;100096.94;4990848;28;20064;-85
2023/04/11 05:41:43;;;;;;;3.00;1.75;;;;;;;7.75;100.00;100098.69;5008915;28;20398;-86
2023/04/11 05:44:13;;;;;;;4.43;1.80;;;;;;;7.64;100.00;100103.97;4987798;28;20037;-86
2023/04/11 05:46:40;;;;;;;6.20;1.65;;;;;;;7.33;100.00;100101.53;4993948;28;20169;-83
2023/04/11 05:49:08;;;;;;;7.00;1.58;;;;;;;7.07;100.00;100102.50;4980076;28;21520;-86
2023/04/11 05:51:37;;;;;;;2.78;1.08;;;;;;;6.86;100.00;100103.44;5004571;28;20038;-85
2023/04/11 05:54:04;;;;;;;6.82;1.25;;;;;;;6.82;100.00;100101.72;4973208;28;20780;-85
2023/04/11 05:56:36;;;;;;;4.32;1.25;;;;;;;6.78;100.00;100106.03;4989630;28;20050;-84
2023/04/11 05:59:03;;;;;;;5.22;1.35;;;;;;;6.75;100.00;100105.19;4996957;28;20115;-86
2023/04/11 06:01:29;;;;;;;3.72;0.73;;;;;;;6.81;100.00;100105.16;4987667;28;20144;-84
2023/04/11 06:03:56;;;;;;;2.95;0.90;;;;;;;6.90;100.00;100094.75;4983442;28;20064;-85
2023/04/11 06:06:23;;;;;;;3.03;0.82;;;;;;;6.98;100.00;100091.25;4969329;28;20116;-84
2023/04/11 06:08:50;;;;;;;1.55;0.90;;;;;;;7.05;100.00;100091.25;4954861;28;20069;-84
2023/04/11 06:11:16;;;;;;;4.18;1.42;;;;;;;7.06;100.00;100094.69;4949926;28;20045;-84
2023/04/11 06:13:43;;;;;;;4.50;1.05;;;;;;;7.08;100.00;100112.03;4950321;28;20047;-85
2023/04/11 06:16:09;;;;;;;2.90;0.80;;;;;;;7.15;100.00;100117.22;4952827;28;20046;-85
2023/04/11 06:18:36;;;;;;;2.47;0.90;;;;;;;7.20;100.00;100118.06;4978576;28;20080;-86
2023/04/11 06:21:04;;;;;;;1.98;0.95;;;;;;;7.27;100.00;100130.19;4967566;28;20065;-85
2023/04/11 06:23:31;;;;;;;1.73;0.60;;;;;;;7.20;100.00;100139.75;4970906;28;20050;-86
2023/04/11 06:25:57;;;;;;;3.53;1.10;;;;;;;7.05;100.00;100143.28;4971692;28;20061;-87
2023/04/11 06:28:24;;;;;;;11.82;1.60;;;;;;;6.81;100.00;100140.75;4971736;28;20046;-88
2023/04/11 06:30:51;;;;;;;5.35;1.17;;;;;;;6.48;100.00;100143.38;4968378;28;20520;-86
2023/04/11 06:33:17;;;;;;;3.08;0.80;;;;;;;6.20;100.00;100126.91;4968554;28;20136;-86
2023/04/11 06:35:44;;;;;;;3.33;0.73;;;;;;;6.06;100.00;100132.06;4958530;28;20137;-87
2023/04/11 06:38:10;;;;;;;1.23;0.73;;;;;;;5.98;100.00;100137.25;4987518;28;20077;-86
2023/04/11 06:40:37;;;;;;;1.98;0.50;;;;;;;5.93;100.00;100136.34;4991192;28;20457;-87
2023/04/11 06:43:03;;;;;;;3.40;1.27;;;;;;;5.90;100.00;100138.97;4976689;28;20432;-87
2023/04/11 06:45:30;;;;;;;1.83;0.80;;;;;;;5.91;100.00;100131.16;4991639;28;20101;-87
2023/04/11 06:47:56;;;;;;;0.70;0.47;;;;;;;5.96;100.00;100136.38;4991088;28;20046;-87
2023/04/11 06:50:23;;;;;;;2.90;0.90;;;;;;;6.06;100.00;100145.06;4988876;28;20053;-86
2023/04/11 06:52:50;;;;;;;5.53;1.05;;;;;;;6.17;100.00;100134.72;5006504;28;20147;-87
2023/04/11 06:55:16;;;;;;;2.72;0.80;;;;;;;6.36;100.00;100139.03;4977904;28;20056;-88
2023/04/11 06:57:44;;;;;;;7.25;1.75;;;;;;;6.53;100.00;100138.16;4993472;28;20488;-87
2023/04/11 07:00:12;;;;;;;5.70;1.10;;;;;;;6.66;100.00;100134.66;4992126;28;20052;-87
2023/04/11 07:02:39;;;;;;;2.30;0.52;;;;;;;6.75;100.00;100144.19;4991926;28;20049;-87
2023/04/11 07:05:08;;;;;;;5.78;1.70;;;;;;;6.81;100.00;100143.34;4976110;28;20069;-87
2023/04/11 07:07:35;;;;;;;2.97;0.93;;;;;;;6.83;100.00;100149.38;4990523;28;20080;-86
2023/04/11 07:10:04;;;;;;;2.38;0.75;;;;;;;6.89;100.00;100158.03;4975901;28;20203;-89
2023/04/11 07:12:30;;;;;;;8.38;0.80;;;;;;;6.95;100.00;100150.22;4990015;28;20088;-89
2023/04/11 07:14:57;;;;;;;5.65;0.80;;;;;;;7.03;100.00;100149.38;4989151;28;20045;-87
2023/04/11 07:17:23;;;;;;;5.45;1.45;;;;;;;7.12;100.00;100157.16;4975053;28;20100;-88
2023/04/11 07:19:50;;;;;;;3.60;0.85;;;;;;;7.20;100.00;100157.13;5006281;28;20137;-89
2023/04/11 07:22:16;;;;;;;1.08;0.60;;;;;;;7.26;100.00;100154.47;4971963;28;20049;-87
2023/04/11 07:24:48;;;;;;;5.95;1.02;;;;;;;7.35;100.00;100159.66;4988422;28;20133;-87
2023/04/11 07:27:16;;;;;;;7.50;1.60;;;;;;;7.41;100.00;100140.56;4970264;28;20129;-87
2023/04/11 07:29:43;;;;;;;3.00;0.90;;;;;;;7.51;100.00;100147.44;4989705;28;20085;-87
2023/04/11 07:32:09;;;;;;;4.88;1.25;;;;;;;7.61;100.00;100151.75;4989370;28;20374;-87
2023/04/11 07:34:37;;;;;;;3.47;1.10;;;;;;;7.74;99.55;100155.16;5009271;28;20053;-87
2023/04/11 07:37:03;;;;;;;2.90;1.08;;;;;;;7.87;99.33;100155.94;4988233;28;20389;-87
2023/04/11 07:39:30;;;;;;;11.45;2.47;;;;;;;7.98;98.66;100157.59;4991301;28;20081;-88
2023/04/11 07:41:58;;;;;;;6.20;1.45;;;;;;;8.07;96.72;100145.41;4992293;28;20066;-88
2023/04/11 07:44:24;;;;;;;5.07;1.30;;;;;;;8.13;97.11;100165.34;4973887;28;20080;-87
2023/04/11 07:46:54;;;;;;;5.45;1.33;;;;;;;8.18;96.64;100168.78;4990756;28;20062;-89
2023/04/11 07:49:21;;;;;;;8.27;1.92;;;;;;;8.27;95.65;100166.09;5006931;28;20045;-89
2023/04/11 07:51:48;;;;;;;10.15;1.88;;;;;;;8.32;95.72;100179.13;4994193;28;20045;-87
2023/04/11 07:54:14;;;;;;;3.42;1.38;;;;;;;8.51;94.02;100176.38;4991393;28;20042;-89
2023/04/11 07:56:41;;;;;;;3.30;1.25;;;;;;;8.69;93.50;100186.66;5008429;28;20117;-87
2023/04/11 07:59:07;;;;;;;5.03;2.33;;;;;;;8.77;93.49;100187.47;5011325;28;20348;-87
2023/04/11 08:01:34;;;;;;;5.75;2.20;;;;;;;8.82;92.21;100189.19;5009993;28;20038;-89
2023/04/11 08:04:02;;;;;;;2.45;1.02;;;;;;;8.71;91.52;100191.91;4995311;28;20061;-88
2023/04/11 08:06:30;;;;;;;3.33;1.48;;;;;;;8.75;92.27;100194.44;4995530;28;20042;-90
2023/04/11 08:08:58;;;;;;;4.13;1.20;;;;;;;8.99;91.65;100189.88;5022319;28;20488;-87
2023/04/11 08:11:25;;;;;;;3.92;1.73;;;;;;;9.09;89.42;100188.91;4987322;28;20113;-88
2023/04/11 08:13:52;;;;;;;6.60;2.38;;;;;;;9.14;89.43;100193.19;5010752;28;20050;-88
2023/04/11 08:16:19;;;;;;;4.10;1.45;;;;;;;9.29;88.80;100194.81;5012291;28;20053;-85
2023/04/11 08:18:46;;;;;;;3.53;1.38;;;;;;;9.22;88.68;100199.22;5012678;28;20104;-86
2023/04/11 08:21:13;;;;;;;4.25;2.28;;;;;;;9.35;88.77;100205.19;4990976;28;20080;-88
2023/04/11 08:23:40;;;;;;;3.85;1.23;;;;;;;9.52;88.47;100198.00;4997025;28;20080;-87
2023/04/11 08:26:11;;;;;;;3.65;1.52;;;;;;;9.59;87.15;100209.25;4993436;28;20046;-90
2023/04/11 08:28:39;;;;;;;4.00;1.38;;;;;;;9.58;86.93;100211.00;5009930;28;20046;-87
2023/04/11 08:31:08;;;;;;;4.20;1.48;;;;;;;9.71;86.48;100203.00;4980710;28;20092;-89
2023/04/11 08:33:36;;;;;;;4.20;2.45;;;;;;;9.77;84.85;100192.47;4978352;28;20050;-88
2023/04/11 08:36:02;;;;;;;4.25;1.55;;;;;;;9.71;85.10;100208.22;5013716;28;20046;-88
2023/04/11 08:38:29;;;;;;;7.13;1.48;;;;;;;9.69;84.86;100210.03;4977784;28;20050;-88
2023/04/11 08:40:56;;;;;;;8.52;1.40;;;;;;;9.57;84.41;100203.19;4996729;28;20056;-89
2023/04/11 08:43:22;;;;;;;3.35;1.33;;;;;;;9.56;82.89;100202.31;4996793;28;20120;-89
2023/04/11 08:45:49;;;;;;;8.35;1.50;;;;;;;9.58;82.25;100174.44;4996429;28;20125;-88
2023/04/11 08:48:20;;;;;;;5.10;2.05;;;;;;;9.58;82.37;100217.97;4972400;28;20055;-88
2023/04/11 08:50:48;;;;;;;4.72;1.10;;;;;;;9.49;82.96;100200.66;4971027;28;20042;-89
2023/04/11 08:53:16;;;;;;;2.38;1.35;;;;;;;9.46;82.78;100200.69;4996857;28;20092;-89
2023/04/11 08:55:47;;;;;;;1.65;1.20;;;;;;;9.94;81.09;100193.09;4985084;28;20045;-86
2023/04/11 08:58:15;;;;;;;3.67;1.08;;;;;;;10.55;78.29;100203.59;4994581;28;20053;-88
2023/04/11 09:00:42;;;;;;;4.10;1.38;;;;;;;11.53;75.26;100207.06;4995174;28;20758;-87
2023/04/11 09:03:11;;;;;;;5.60;1.02;;;;;;;11.99;70.01;100198.25;4982269;28;20057;-88
2023/04/11 09:05:42;;;;;;;2.85;0.68;;;;;;;11.26;72.41;100188.38;4977766;28;20128;-88
2023/04/11 09:08:12;;;;;;;3.28;0.80;;;;;;;11.84;70.20;100209.06;4982414;28;20528;-89
2023/04/11 09:10:42;;;;;;;3.75;0.93;;;;;;;11.58;70.62;100205.22;4996026;28;20065;-89
2023/04/11 09:13:27;;;;;;;2.10;1.23;;;;;;;11.52;71.27;100206.19;4995689;28;20061;-90
2023/04/11 09:16:07;;;;;;;3.65;1.58;;;;;;;12.17;68.13;100217.97;4994472;28;20100;-87
2023/04/11 09:18:37;;;;;;;2.97;0.93;;;;;;;13.10;63.46;100197.31;4993590;28;20193;-86
2023/04/11 09:21:07;;;;;;;3.53;1.33;;;;;;;13.85;62.93;100204.91;4980192;28;20069;-89
2023/04/11 09:23:35;;;;;;;6.75;2.00;;;;;;;14.93;58.97;100207.66;4984272;28;20038;-89
2023/04/11 09:26:10;;;;;;;5.95;1.17;;;;;;;15.51;54.46;100205.63;4980576;28;20076;-87
2023/04/11 09:28:51;;;;;;;3.38;0.90;;;;;;;14.41;56.20;100211.09;4981264;28;20051;-88
2023/04/11 09:31:18;;;;;;;7.80;1.63;;;;;;;13.84;57.47;100207.56;4976773;28;20038;-85
2023/04/11 09:33:55;;;;;;;3.30;0.95;;;;;;;13.43;57.30;100207.88;4973399;28;20041;-87
2023/04/11 09:36:24;;;;;;;5.20;3.08;;;;;;;13.36;57.89;100220.31;5006137;28;20068;-87
2023/04/11 09:38:51;;;;;;;6.25;1.98;;;;;;;13.22;58.29;100204.88;4980181;28;20069;-87
2023/04/11 09:41:33;;;;;;;4.60;0.90;;;;;;;13.63;56.90;100209.91;5025938;28;20060;-87
2023/04/11 09:44:01;;;;;;;3.67;1.67;;;;;;;14.58;52.54;100213.19;5001440;28;20053;-86
2023/04/11 09:46:27;;;;;;;4.60;1.77;;;;;;;13.93;52.68;100230.97;4984460;28;20403;-88
2023/04/11 09:48:55;;;;;;;7.85;3.22;;;;;;;12.47;57.65;100233.06;5002360;28;20615;-88
2023/04/11 09:51:22;;;;;;;4.85;1.17;;;;;;;11.49;61.67;100263.94;4992440;28;20120;-87
2023/04/11 09:53:49;;;;;;;3.60;1.38;;;;;;;10.89;64.73;100270.25;4995968;28;20049;-87
2023/04/11 09:56:15;;;;;;;3.15;0.60;;;;;;;10.49;67.58;100289.19;5021603;28;20278;-87
2023/04/11 09:58:42;;;;;;;3.15;1.00;;;;;;;10.34;66.10;100283.25;5009261;28;20064;-87
2023/04/11 10:01:10;;;;;;;0.90;0.40;;;;;;;9.65;72.08;100271.91;5025498;28;20046;-87
2023/04/11 10:03:38;;;;;;;2.58;0.85;;;;;;;9.14;74.88;100279.38;5009482;28;20124;-87
2023/04/11 10:06:52;;;;;;;0.32;0.30;;;;;;;8.90;71.59;100286.53;5040096;28;20069;-88
2023/04/11 10:09:20;;;;;;;0.63;0.55;;;;;;;8.84;73.29;100284.88;5015208;28;20144;-87
2023/04/11 10:11:46;;;;;;;2.05;0.75;;;;;;;9.27;70.67;100273.19;5033360;28;20046;-87
2023/04/11 10:14:37;;;;;;;1.92;0.88;;;;;;;9.71;68.93;100277.06;5004076;28;20137;-87
2023/04/11 10:17:17;;;;;;;1.38;0.50;;;;;;;10.03;68.83;100275.78;5020833;28;20045;-85
2023/04/11 10:19:47;;;;;;;3.65;0.80;;;;;;;11.23;65.95;100264.41;4985958;28;20688;-87
2023/04/11 10:22:42;;;;;;;2.00;1.17;;;;;;;13.00;59.65;100253.66;5035712;28;20052;-87
2023/04/11 10:25:19;;;;;;;2.28;0.75;;;;;;;14.70;55.75;100262.84;5019918;28;20037;-87
2023/04/11 10:27:52;;;;;;;3.75;0.75;;;;;;;15.41;51.64;100251.72;5021312;28;20057;-87
2023/04/11 10:30:23;;;;;;;3.03;0.80;;;;;;;16.29;49.25;100242.34;5004234;28;20049;-87
2023/04/11 10:33:21;;;;;;;2.05;0.52;;;;;;;16.83;47.26;100245.44;5017963;28;20582;-87
2023/04/11 10:36:08;;;;;;;5.38;0.90;;;;;;;17.24;43.27;100242.84;4984678;28;20448;-87
2023/04/11 10:38:42;;;;;;;3.10;0.85;;;;;;;17.47;41.19;100241.84;5021128;28;20591;-86
2023/04/11 10:41:24;;;;;;;1.77;0.75;;;;;;;17.96;37.93;100237.94;5004492;28;20060;-88
2023/04/11 10:43:52;;;;;;;1.65;0.70;;;;;;;18.13;37.81;100238.03;5003950;28;20049;-86
2023/04/11 10:46:24;;;;;;;1.52;0.63;;;;;;;17.49;37.53;100250.56;5018033;28;20049;-88
2023/04/11 10:49:05;;;;;;;2.38;0.55;;;;;;;17.78;36.17;100247.56;5004315;28;20076;-87
2023/04/11 10:51:34;;;;;;;1.88;0.75;;;;;;;18.47;36.22;100249.66;4991931;28;20279;-86
2023/04/11 10:54:01;;;;;;;1.17;0.50;;;;;;;18.75;33.54;100219.13;5027132;28;20045;-87
2023/04/11 10:56:43;;;;;;;1.40;0.50;;;;;;;19.10;34.05;100250.13;5025285;28;20065;-89
2023/04/11 10:59:31;;;;;;;1.92;0.43;;;;;;;19.73;32.38;100233.56;5009925;28;20049;-87
2023/04/11 11:02:00;;;;;;;1.52;0.60;;;;;;;19.85;31.86;100240.03;5015018;28;20123;-88
2023/04/11 11:04:36;;;;;;;4.05;0.60;;;;;;;19.85;31.76;100253.31;4997351;28;20049;-87
2023/04/11 11:07:06;;;;;;;3.25;0.95;;;;;;;19.42;31.61;100235.19;5013155;28;20045;-88
2023/04/11 11:09:48;;;;;;;2.53;0.68;;;;;;;19.07;32.76;100261.75;5027019;28;20224;-87
2023/04/11 11:12:25;;;;;;;1.60;0.47;;;;;;;19.44;31.75;100257.22;5019056;28;20053;-87
2023/04/11 11:14:53;;;;;;;3.25;1.00;;;;;;;18.45;33.59;100261.28;5001557;28;20436;-87
2023/04/11 11:17:22;;;;;;;3.15;0.65;;;;;;;16.58;36.12;100266.72;5003857;28;20038;-87
2023/04/11 11:19:49;;;;;;;2.10;0.80;;;;;;;15.28;39.04;100279.41;5010818;28;20087;-87
2023/04/11 11:22:24;;;;;;;2.90;0.93;;;;;;;13.99;41.72;100272.91;4991952;28;20567;-87
2023/04/11 11:24:52;;;;;;;2.00;0.90;;;;;;;14.69;41.00;100278.72;4990235;28;20050;-87
2023/04/11 11:27:24;;;;;;;5.63;1.10;;;;;;;15.52;39.64;100272.44;4992278;28;20049;-88
2023/04/11 11:29:51;;;;;;;2.28;0.80;;;;;;;17.05;36.48;100274.50;4993685;28;20053;-88
2023/04/11 11:32:26;;;;;;;3.30;0.47;;;;;;;18.27;34.47;100269.16;5008285;28;20043;-88
2023/04/11 11:34:54;;;;;;;1.77;0.65;;;;;;;19.95;32.48;100283.75;5009819;28;20053;-89